Piper — WDE6779 — position and weather

sailwx.info

Track history (hours):
 
Tides and Currents Weather Stations Pressure Air Temp Water Temp Dewpoint Dewpoint Depression Visibility Wind Speed Wind Dir Waves Ship Positions

Piper

Owner: ADS MARINE, LLC, MORGAN CITY, LA. More information available from US FCC via Universal Licensing System and Coast Guard Vessel Documentation Center.

Last reported at 2016-Dec-06 11:19 UTC. Time now 2016-Dec-09 07:47 UTC.
Position N 29°32' W 092°19'.

Length 40 m; draft 3 m.

Type: Cargo ship. MMSI: 367384720.

Date/timePositionNaut miles runAvg speedWind from/ knotsBaromVisibWave heightAir tempDewpointWater temp
2016-Dec-06 11:19N 29°32' W 092°19'5 6.8
2016-Dec-06 10:34N 29°37' W 092°17'6 5.9
2016-Dec-06 09:33N 29°42' W 092°15'6 5.6
2016-Dec-06 08:34N 29°47' W 092°11'1 0.5
2016-Dec-06 07:33N 29°47' W 092°10'0 0.0
2016-Dec-06 06:34N 29°47' W 092°10'0 0.0
2016-Dec-06 05:33N 29°47' W 092°10'0 0.0
2016-Dec-06 04:34N 29°47' W 092°10'0 0.0
2016-Dec-06 03:33N 29°47' W 092°10'0 0.0
2016-Dec-06 02:34N 29°47' W 092°10'0 0.0
2016-Dec-06 01:33N 29°47' W 092°10'0 0.0
2016-Dec-06 00:34N 29°47' W 092°10'0 0.0
2016-Dec-05 23:34N 29°47' W 092°10'1 0.9
2016-Dec-05 22:34N 29°47' W 092°11'0 0.1
2016-Dec-05 21:34N 29°47' W 092°11'0 0.0
2016-Dec-05 20:34N 29°47' W 092°11'5 5.1
2016-Dec-05 19:33N 29°43' W 092°15'7 7.5
2016-Dec-05 18:34N 29°36' W 092°18'6 5.8
2016-Dec-05 17:31N 29°30' W 092°19'  
2016-Nov-29 04:28N 29°32' W 092°18'5 4.9
2016-Nov-29 03:33N 29°37' W 092°17'8 7.6
2016-Nov-29 02:33N 29°44' W 092°14'4 4.1
2016-Nov-29 01:34N 29°47' W 092°11'0 0.1
2016-Nov-29 00:33N 29°47' W 092°11'1 0.8
2016-Nov-28 23:33N 29°47' W 092°10'0 0.0
2016-Nov-28 22:33N 29°47' W 092°10'0 0.0
2016-Nov-28 21:33N 29°47' W 092°10'0 0.0
2016-Nov-28 20:33N 29°47' W 092°10'0 0.0
2016-Nov-28 19:34N 29°47' W 092°10'0 0.0
2016-Nov-28 18:33N 29°47' W 092°10'0 0.0
2016-Nov-28 17:34N 29°47' W 092°10'0 0.0
2016-Nov-28 16:33N 29°47' W 092°10'1 0.8
2016-Nov-28 15:34N 29°47' W 092°11'0 0.0
2016-Nov-28 14:33N 29°47' W 092°11'1 0.8
2016-Nov-28 13:33N 29°46' W 092°11'7 7.0
2016-Nov-28 12:31N 29°40' W 092°15'7 6.9
2016-Nov-28 11:31N 29°34' W 092°18'  
Track history (hours):
 
Tides and Currents Weather Stations Pressure Air Temp Water Temp Dewpoint Dewpoint Depression Visibility Wind Speed Wind Dir Waves Ship Positions

Piper

Owner: ADS MARINE, LLC, MORGAN CITY, LA. More information available from US FCC via Universal Licensing System and Coast Guard Vessel Documentation Center.

Last reported at 2016-Dec-06 11:19 UTC. Time now 2016-Dec-09 07:47 UTC.
Position N 29°32' W 092°19'.

Length 40 m; draft 3 m.

Type: Cargo ship. MMSI: 367384720.

Date/timePositionNaut miles runAvg speedWind from/ knotsBaromVisibWave heightAir tempDewpointWater temp
2016-Dec-06 11:19N 29°32' W 092°19'5 6.8
2016-Dec-06 10:34N 29°37' W 092°17'6 5.9
2016-Dec-06 09:33N 29°42' W 092°15'6 5.6
2016-Dec-06 08:34N 29°47' W 092°11'1 0.5
2016-Dec-06 07:33N 29°47' W 092°10'0 0.0
2016-Dec-06 06:34N 29°47' W 092°10'0 0.0
2016-Dec-06 05:33N 29°47' W 092°10'0 0.0
2016-Dec-06 04:34N 29°47' W 092°10'0 0.0
2016-Dec-06 03:33N 29°47' W 092°10'0 0.0
2016-Dec-06 02:34N 29°47' W 092°10'0 0.0
2016-Dec-06 01:33N 29°47' W 092°10'0 0.0
2016-Dec-06 00:34N 29°47' W 092°10'0 0.0
2016-Dec-05 23:34N 29°47' W 092°10'1 0.9
2016-Dec-05 22:34N 29°47' W 092°11'0 0.1
2016-Dec-05 21:34N 29°47' W 092°11'0 0.0
2016-Dec-05 20:34N 29°47' W 092°11'5 5.1
2016-Dec-05 19:33N 29°43' W 092°15'7 7.5
2016-Dec-05 18:34N 29°36' W 092°18'6 5.8
2016-Dec-05 17:31N 29°30' W 092°19'  
2016-Nov-29 04:28N 29°32' W 092°18'5 4.9
2016-Nov-29 03:33N 29°37' W 092°17'8 7.6
2016-Nov-29 02:33N 29°44' W 092°14'4 4.1
2016-Nov-29 01:34N 29°47' W 092°11'0 0.1
2016-Nov-29 00:33N 29°47' W 092°11'1 0.8
2016-Nov-28 23:33N 29°47' W 092°10'0 0.0
2016-Nov-28 22:33N 29°47' W 092°10'0 0.0
2016-Nov-28 21:33N 29°47' W 092°10'0 0.0
2016-Nov-28 20:33N 29°47' W 092°10'0 0.0
2016-Nov-28 19:34N 29°47' W 092°10'0 0.0
2016-Nov-28 18:33N 29°47' W 092°10'0 0.0
2016-Nov-28 17:34N 29°47' W 092°10'0 0.0
2016-Nov-28 16:33N 29°47' W 092°10'1 0.8
2016-Nov-28 15:34N 29°47' W 092°11'0 0.0
2016-Nov-28 14:33N 29°47' W 092°11'1 0.8
2016-Nov-28 13:33N 29°46' W 092°11'7 7.0
2016-Nov-28 12:31N 29°40' W 092°15'7 6.9
2016-Nov-28 11:31N 29°34' W 092°18'  

Dump ship's entire track history